Etusivu
METAR-TAF:

METAR-TAF

Lentoasemat :

Comayagua, Honduras

Leveyspiiri: 14-23N, Pituuspiiri: 087-37W, korkeus merenpinnasta: 628 m

Tämänhetkinen sää

Tämä raportti tehtiin 11 minuuttia sitten, kello 11.56 UTC
Tuuli 6 kn pohjoisen/luoteesta
Lämpötila 21°C
Kosteus 88%
Ilmanpaine 1015 hPa
Näkyvyys 10 km tai enemmän
Pilvistä 6000 ft:n korkeudessa

METAR: MHSC 171156Z AUTO 33006KT 9999 OVC060 21/19 A2998 RMK AO2 SLP115 T02050190 10211 20192 53012 $

Aika: 06:07 (12:07 UTC)


TAF: puuttuu

Säähavainnot ja -ennusteet yli 4000 lentoasemalta (METAR- ja TAF-raportit).

Käytössä olevat sääasemat on merkitty karttaan keltaisilla ja punaisilla pisteillä.

Aseta hiiri pisteen päälle nähdäksesi sääaseman nimen.

Klikkaa sitten nähdäksesi säähavainnot ja -ennusteet.

Kartan vaihtaminen: klikkaa mustalla rastilla varustettuja vihreitä pisteitä, niin voit zoomata sisään; viivalla varustettua vihreää pistettä, niin voit zoomata ulos tai vihreitä nuolia, niin pääset viereisille kartoille.


METAR-TAF: